
Distance (Route):
Temperature : 21.9°C
Humidity : 51.8%
Pressure : 0hPa| Receiver | Frames | First received | Last received |
|---|---|---|---|
| LZ4TU-5 | 89 | 2026-08-30 11:57:53 | 2026-08-30 13:03:14 |
| Receiver | Date | Latitude | Longitude | Direction | Speed | Altitude | Climb | Temperature | Humidity | Pressure | Voltage | Killtimer | Uptime | BKT | XDATA |
|---|---|---|---|---|---|---|---|---|---|---|---|---|---|---|---|
| LZ4TU-5 | 2026-08-30 13:03:14 | 42.52982 | 23.69386 | 260° | 5km/h | 1380m | -16.3m/s | 21.9°C | 51.8% | 0hPa | 0V | 08:16:00 | 00:00:00 | 00:00:00 | |
| LZ4TU-5 | 2026-08-30 13:02:50 | 42.52991 | 23.69443 | 283° | 5km/h | 1781m | -16.4m/s | 18.3°C | 59.4% | 0hPa | 0V | 08:16:00 | 00:00:00 | 00:00:00 | |
| LZ4TU-5 | 2026-08-30 13:02:43 | 42.52990 | 23.69451 | 243° | 4km/h | 1880m | -17.2m/s | 17.3°C | 62.5% | 0hPa | 0V | 08:16:00 | 00:00:00 | 00:00:00 | |
| LZ4TU-5 | 2026-08-30 13:02:37 | 42.52991 | 23.69453 | 240° | 4km/h | 1988m | -18.2m/s | 16.6°C | 57.8% | 0hPa | 0V | 08:16:00 | 00:00:00 | 00:00:00 | |
| LZ4TU-5 | 2026-08-30 13:02:32 | 42.52991 | 23.69457 | 301° | 4km/h | 2078m | -18.1m/s | 15.7°C | 63.9% | 0hPa | 0V | 08:17:00 | 00:00:00 | 00:00:00 | |
| LZ4TU-5 | 2026-08-30 13:02:27 | 42.52991 | 23.69460 | 161° | 2km/h | 2186m | -18.1m/s | 14.8°C | 63.8% | 0hPa | 0V | 08:17:00 | 00:00:00 | 00:00:00 | |
| LZ4TU-5 | 2026-08-30 13:02:22 | 42.52992 | 23.69458 | 141° | 5km/h | 2275m | -18.1m/s | 13.9°C | 68.5% | 0hPa | 0V | 08:17:00 | 00:00:00 | 00:00:00 | |
| LZ4TU-5 | 2026-08-30 13:02:17 | 42.52996 | 23.69454 | 114° | 5km/h | 2363m | -18.2m/s | 13.1°C | 71.3% | 0hPa | 0V | 08:17:00 | 00:00:00 | 00:00:00 | |
| LZ4TU-5 | 2026-08-30 13:02:13 | 42.52998 | 23.69452 | 154° | 5km/h | 2434m | -17.9m/s | 12.4°C | 74.4% | 0hPa | 0V | 08:17:00 | 00:00:00 | 00:00:00 | |
| LZ4TU-5 | 2026-08-30 13:02:08 | 42.53001 | 23.69448 | 108° | 5km/h | 2520m | -17.4m/s | 11.6°C | 77.4% | 0hPa | 0V | 08:17:00 | 00:00:00 | 00:00:00 | |
| LZ4TU-5 | 2026-08-30 13:02:04 | 42.53003 | 23.69442 | 119° | 9km/h | 2589m | -17.7m/s | 11.1°C | 78.1% | 0hPa | 0V | 08:17:00 | 00:00:00 | 00:00:00 | |
| LZ4TU-5 | 2026-08-30 13:01:59 | 42.53009 | 23.69432 | 131° | 7km/h | 2675m | -17.2m/s | 10.7°C | 69.4% | 0hPa | 0V | 08:17:00 | 00:00:00 | 00:00:00 | |
| LZ4TU-5 | 2026-08-30 13:01:55 | 42.53014 | 23.69421 | 118° | 7km/h | 2743m | -16.7m/s | 10.1°C | 71.7% | 0hPa | 0V | 08:17:00 | 00:00:00 | 00:00:00 | |
| LZ4TU-5 | 2026-08-30 13:01:50 | 42.53013 | 23.69409 | 149° | 11km/h | 2822m | -17.5m/s | 9.5°C | 70.7% | 0hPa | 0V | 08:17:00 | 00:00:00 | 00:00:00 | |
| LZ4TU-5 | 2026-08-30 13:01:45 | 42.53022 | 23.69397 | 128° | 13km/h | 2907m | -17.7m/s | 9.0°C | 65.8% | 0hPa | 0V | 08:18:00 | 00:00:00 | 00:00:00 | |
| LZ4TU-5 | 2026-08-30 13:01:41 | 42.53030 | 23.69387 | 145° | 13km/h | 2977m | -18.1m/s | 8.3°C | 68.6% | 0hPa | 0V | 08:18:00 | 00:00:00 | 00:00:00 | |
| LZ4TU-5 | 2026-08-30 13:01:36 | 42.53040 | 23.69377 | 132° | 15km/h | 3048m | -18.3m/s | 7.8°C | 72.2% | 0hPa | 0V | 08:18:00 | 00:00:00 | 00:00:00 | |
| LZ4TU-5 | 2026-08-30 13:01:32 | 42.53050 | 23.69363 | 138° | 15km/h | 3137m | -18.7m/s | 7.2°C | 72.5% | 0hPa | 0V | 08:18:00 | 00:00:00 | 00:00:00 | |
| LZ4TU-5 | 2026-08-30 13:01:28 | 42.53059 | 23.69350 | 128° | 11km/h | 3210m | -18.4m/s | 6.7°C | 73.5% | 0hPa | 0V | 08:18:00 | 00:00:00 | 00:00:00 | |
| LZ4TU-5 | 2026-08-30 13:01:23 | 42.53069 | 23.69326 | 105° | 16km/h | 3299m | -17.9m/s | 6.1°C | 69.5% | 0hPa | 0V | 08:18:00 | 00:00:00 | 00:00:00 | |
| LZ4TU-5 | 2026-08-30 13:01:13 | 42.53083 | 23.69264 | 128° | 22km/h | 3476m | -19.5m/s | 4.7°C | 69.9% | 0hPa | 0V | 08:18:00 | 00:00:00 | 00:00:00 | |
| LZ4TU-5 | 2026-08-30 13:01:08 | 42.53103 | 23.69236 | 121° | 27km/h | 3569m | -19.2m/s | 3.9°C | 74.9% | 0hPa | 0V | 08:18:00 | 00:00:00 | 00:00:00 | |
| LZ4TU-5 | 2026-08-30 13:01:03 | 42.53119 | 23.69181 | 110° | 40km/h | 3653m | -14.1m/s | 3.2°C | 74.1% | 0hPa | 0V | 08:18:00 | 00:00:00 | 00:00:00 | |
| LZ4TU-5 | 2026-08-30 13:00:59 | 42.53136 | 23.69140 | 121° | 26km/h | 3717m | -18.7m/s | 3.0°C | 64.6% | 0hPa | 0V | 08:18:00 | 00:00:00 | 00:00:00 | |
| LZ4TU-5 | 2026-08-30 13:00:54 | 42.53150 | 23.69103 | 119° | 22km/h | 3810m | -18.7m/s | 2.4°C | 46.4% | 0hPa | 0V | 00:00:00 | 00:00:00 | 00:00:00 | |
| LZ4TU-5 | 2026-08-30 13:00:50 | 42.53162 | 23.69074 | 124° | 22km/h | 3885m | -19.4m/s | 2.1°C | 30.1% | 0hPa | 0V | 00:00:00 | 00:00:00 | 00:00:00 | |
| LZ4TU-5 | 2026-08-30 13:00:45 | 42.53175 | 23.69044 | 125° | 24km/h | 3960m | -18.6m/s | 1.6°C | 37.1% | 0hPa | 0V | 00:00:00 | 00:00:00 | 00:00:00 | |
| LZ4TU-5 | 2026-08-30 13:00:41 | 42.53191 | 23.69007 | 121° | 26km/h | 4053m | -19.3m/s | 0.8°C | 28.9% | 0hPa | 0V | 00:00:00 | 00:00:00 | 00:00:00 | |
| LZ4TU-5 | 2026-08-30 12:59:07 | 42.53587 | 23.68230 | 139° | 35km/h | 5892m | -20.9m/s | -8.5°C | 8.5% | 0hPa | 0V | 00:00:00 | 00:00:00 | 00:00:00 | |
| LZ4TU-5 | 2026-08-30 12:59:03 | 42.53613 | 23.68195 | 134° | 40km/h | 5975m | -21.1m/s | -9.1°C | 13.0% | 0hPa | 0V | 00:00:00 | 00:00:00 | 00:00:00 | |
| LZ4TU-5 | 2026-08-30 12:58:58 | 42.53648 | 23.68144 | 132° | 40km/h | 6080m | -21.5m/s | -9.8°C | 13.6% | 0hPa | 0V | 00:00:00 | 00:00:00 | 00:00:00 | |
| LZ4TU-5 | 2026-08-30 12:57:25 | 42.54164 | 23.67436 | 126° | 33km/h | 8098m | -22.7m/s | -24.1°C | 40.0% | 0hPa | 0V | 00:00:00 | 00:00:00 | 00:00:00 | |
| LZ4TU-5 | 2026-08-30 12:57:21 | 42.54182 | 23.67399 | 126° | 29km/h | 8188m | -22.5m/s | -24.9°C | 51.3% | 0hPa | 0V | 00:00:00 | 00:00:00 | 00:00:00 | |
| LZ4TU-5 | 2026-08-30 12:50:21 | 42.55711 | 23.63595 | 301° | 20km/h | 21505m | -52.6m/s | -53.4°C | 1.6% | 0hPa | 0V | 00:00:00 | 00:00:00 | 00:00:00 | |
| LZ4TU-5 | 2026-08-30 12:50:17 | 42.55697 | 23.63615 | 330° | 20km/h | 21719m | -54.1m/s | -53.3°C | 1.4% | 0hPa | 0V | 00:00:00 | 00:00:00 | 00:00:00 | |
| LZ4TU-5 | 2026-08-30 12:48:12 | 42.55658 | 23.63523 | 124° | 5km/h | 26639m | 4.4m/s | -47.8°C | 1.1% | 0hPa | 0V | 00:00:00 | 00:00:00 | 00:00:00 | |
| LZ4TU-5 | 2026-08-30 12:48:08 | 42.55655 | 23.63511 | 51° | 15km/h | 26616m | 5.3m/s | -48.0°C | 1.1% | 0hPa | 0V | 00:00:00 | 00:00:00 | 00:00:00 | |
| LZ4TU-5 | 2026-08-30 12:45:47 | 42.55529 | 23.63494 | 288° | 15km/h | 25768m | 7.6m/s | -50.3°C | 1.3% | 0hPa | 0V | 00:00:00 | 00:00:00 | 00:00:00 | |
| LZ4TU-5 | 2026-08-30 12:45:42 | 42.55521 | 23.63506 | 323° | 9km/h | 25738m | 6.6m/s | -50.6°C | 1.3% | 0hPa | 0V | 00:00:00 | 00:00:00 | 00:00:00 | |
| LZ4TU-5 | 2026-08-30 12:43:40 | 42.55348 | 23.63641 | 326° | 22km/h | 24957m | 6.6m/s | -51.3°C | 1.3% | 0hPa | 0V | 00:00:00 | 00:00:00 | 00:00:00 | |
| LZ4TU-5 | 2026-08-30 12:43:36 | 42.55331 | 23.63656 | 319° | 13km/h | 24932m | 5.6m/s | -51.3°C | 1.4% | 0hPa | 0V | 00:00:00 | 00:00:00 | 00:00:00 | |
| LZ4TU-5 | 2026-08-30 12:41:24 | 42.55149 | 23.63754 | 208° | 4km/h | 24108m | 6.4m/s | -53.0°C | 1.4% | 0hPa | 0V | 00:00:00 | 00:00:00 | 00:00:00 | |
| LZ4TU-5 | 2026-08-30 12:41:19 | 42.55156 | 23.63759 | 208° | 9km/h | 24078m | 7.5m/s | -52.9°C | 1.5% | 0hPa | 0V | 00:00:00 | 00:00:00 | 00:00:00 | |
| LZ4TU-5 | 2026-08-30 12:38:50 | 42.55066 | 23.63752 | 337° | 7km/h | 23172m | 7.4m/s | -54.2°C | 1.6% | 0hPa | 0V | 00:00:00 | 00:00:00 | 00:00:00 | |
| LZ4TU-5 | 2026-08-30 12:38:46 | 42.55061 | 23.63755 | 339° | 5km/h | 23146m | 5.8m/s | -54.1°C | 0% | 0hPa | 0V | 00:00:00 | 00:00:00 | 00:00:00 | |
| LZ4TU-5 | 2026-08-30 12:36:31 | 42.54745 | 23.64244 | 296° | 18km/h | 22322m | 5.5m/s | -53.4°C | 1.6% | 0hPa | 0V | 00:00:00 | 00:00:00 | 00:00:00 | |
| LZ4TU-5 | 2026-08-30 12:36:26 | 42.54736 | 23.64270 | 301° | 16km/h | 22292m | 5.3m/s | -53.2°C | 1.5% | 0hPa | 0V | 00:00:00 | 00:00:00 | 00:00:00 | |
| LZ4TU-5 | 2026-08-30 12:36:21 | 42.54726 | 23.64297 | 294° | 18km/h | 22262m | 5.5m/s | -53.0°C | 1.6% | 0hPa | 0V | 00:00:00 | 00:00:00 | 00:00:00 | |
| LZ4TU-5 | 2026-08-30 12:34:18 | 42.54295 | 23.64617 | 263° | 24km/h | 21552m | 5.6m/s | -54.3°C | 1.6% | 0hPa | 0V | 00:00:00 | 00:00:00 | 00:00:00 | |
| LZ4TU-5 | 2026-08-30 12:34:13 | 42.54299 | 23.64652 | 278° | 20km/h | 21523m | 5.8m/s | -54.7°C | 1.6% | 0hPa | 0V | 00:00:00 | 00:00:00 | 00:00:00 | |
| LZ4TU-5 | 2026-08-30 12:32:23 | 42.54256 | 23.64880 | 352° | 7km/h | 20909m | 5.1m/s | -56.0°C | 1.7% | 0hPa | 0V | 00:00:00 | 00:00:00 | 00:00:00 | |
| LZ4TU-5 | 2026-08-30 12:32:19 | 42.54253 | 23.64877 | 109° | 5km/h | 20887m | 6.3m/s | -56.0°C | 0% | 0hPa | 0V | 00:00:00 | 00:00:00 | 00:00:00 | |
| LZ4TU-5 | 2026-08-30 12:30:30 | 42.54129 | 23.64660 | 351° | 15km/h | 20254m | 7.4m/s | -57.2°C | 1.8% | 0hPa | 0V | 00:00:00 | 00:00:00 | 00:00:00 | |
| LZ4TU-5 | 2026-08-30 12:30:26 | 42.54115 | 23.64673 | 319° | 20km/h | 20230m | 5.2m/s | -57.2°C | 1.8% | 0hPa | 0V | 00:00:00 | 00:00:00 | 00:00:00 | |
| LZ4TU-5 | 2026-08-30 12:28:07 | 42.53678 | 23.64866 | 16° | 7km/h | 19461m | 6.5m/s | -57.5°C | 1.9% | 0hPa | 0V | 00:00:00 | 00:00:00 | 00:00:00 | |
| LZ4TU-5 | 2026-08-30 12:28:03 | 42.53666 | 23.64866 | 7° | 9km/h | 19433m | 5.4m/s | -57.4°C | 0% | 0hPa | 0V | 00:00:00 | 00:00:00 | 00:00:00 | |
| LZ4TU-5 | 2026-08-30 12:26:15 | 42.53584 | 23.64730 | 83° | 20km/h | 18794m | 7.9m/s | -59.5°C | 2.2% | 0hPa | 0V | 00:00:00 | 00:00:00 | 00:00:00 | |
| LZ4TU-5 | 2026-08-30 12:26:11 | 42.53577 | 23.64705 | 67° | 18km/h | 18769m | 7.1m/s | -59.7°C | 2.2% | 0hPa | 0V | 00:00:00 | 00:00:00 | 00:00:00 | |
| LZ4TU-5 | 2026-08-30 12:26:07 | 42.53572 | 23.64683 | 83° | 18km/h | 18746m | 5.6m/s | -59.7°C | 2.2% | 0hPa | 0V | 00:00:00 | 00:00:00 | 00:00:00 | |
| LZ4TU-5 | 2026-08-30 12:26:02 | 42.53569 | 23.64654 | 85° | 16km/h | 18714m | 7.0m/s | -59.5°C | 2.2% | 0hPa | 0V | 00:00:00 | 00:00:00 | 00:00:00 | |
| LZ4TU-5 | 2026-08-30 12:23:58 | 42.53471 | 23.64243 | 63° | 5km/h | 18001m | 3.3m/s | -56.5°C | 2.0% | 0hPa | 0V | 00:00:00 | 00:00:00 | 00:00:00 | |
| LZ4TU-5 | 2026-08-30 12:23:53 | 42.53465 | 23.64238 | 25° | 7km/h | 17976m | 5.2m/s | !°C | 2.0% | 0hPa | 0V | 00:00:00 | 00:00:00 | 00:00:00 | |
| LZ4TU-5 | 2026-08-30 12:23:48 | 42.53455 | 23.64238 | 11° | 9km/h | 17950m | 5.1m/s | -56.9°C | 2.0% | 0hPa | 0V | 00:00:00 | 00:00:00 | 00:00:00 | |
| LZ4TU-5 | 2026-08-30 12:21:59 | 42.53078 | 23.63545 | 56° | 27km/h | 17343m | 6.8m/s | -58.4°C | 2.4% | 0hPa | 0V | 00:00:00 | 00:00:00 | 00:00:00 | |
| LZ4TU-5 | 2026-08-30 12:21:54 | 42.53066 | 23.63514 | 70° | 26km/h | 17318m | 6.0m/s | -58.3°C | 2.5% | 0hPa | 0V | 00:00:00 | 00:00:00 | 00:00:00 | |
| LZ4TU-5 | 2026-08-30 12:20:07 | 42.52986 | 23.62684 | 79° | 16km/h | 16703m | 4.8m/s | -58.5°C | 2.3% | 0hPa | 0V | 00:00:00 | 00:00:00 | 00:00:00 | |
| LZ4TU-5 | 2026-08-30 12:20:03 | 42.52986 | 23.62667 | 98° | 15km/h | 16683m | 4.7m/s | -58.5°C | 2.6% | 0hPa | 0V | 00:00:00 | 00:00:00 | 00:00:00 | |
| LZ4TU-5 | 2026-08-30 12:18:13 | 42.53366 | 23.61408 | 93° | 55km/h | 16142m | 6.3m/s | -60.4°C | 3.0% | 0hPa | 0V | 00:00:00 | 00:00:00 | 00:00:00 | |
| LZ4TU-5 | 2026-08-30 12:18:08 | 42.53377 | 23.61312 | 105° | 57km/h | 16118m | 4.4m/s | -60.1°C | 3.1% | 0hPa | 0V | 00:00:00 | 00:00:00 | 00:00:00 | |
| LZ4TU-5 | 2026-08-30 12:16:20 | 42.53752 | 23.59713 | 115° | 33km/h | 15521m | 6.0m/s | -59.8°C | 3.3% | 0hPa | 0V | 00:00:00 | 00:00:00 | 00:00:00 | |
| LZ4TU-5 | 2026-08-30 12:16:14 | 42.53769 | 23.59662 | 112° | 35km/h | 15492m | 5.3m/s | -60.0°C | 3.4% | 0hPa | 0V | 00:00:00 | 00:00:00 | 00:00:00 | |
| LZ4TU-5 | 2026-08-30 12:14:24 | 42.53988 | 23.58377 | 121° | 44km/h | 14876m | 4.7m/s | -59.6°C | 4.4% | 0hPa | 0V | 00:00:00 | 00:00:00 | 00:00:00 | |
| LZ4TU-5 | 2026-08-30 12:14:20 | 42.54007 | 23.58326 | 119° | 42km/h | 14855m | 4.1m/s | -59.9°C | 4.6% | 0hPa | 0V | 00:00:00 | 00:00:00 | 00:00:00 | |
| LZ4TU-5 | 2026-08-30 12:12:36 | 42.54380 | 23.56895 | 97° | 42km/h | 14335m | 5.7m/s | 0°C | 0% | 0hPa | 0V | 00:00:00 | 00:00:00 | 00:00:00 | |
| LZ4TU-5 | 2026-08-30 12:12:31 | 42.54385 | 23.56825 | 102° | 35km/h | 14309m | 7.3m/s | 0°C | 0% | 0hPa | 0V | 00:00:00 | 00:00:00 | 00:00:00 | |
| LZ4TU-5 | 2026-08-30 12:10:46 | 42.54780 | 23.55843 | 147° | 38km/h | 13683m | 7.6m/s | 0°C | 0% | 0hPa | 0V | 00:00:00 | 00:00:00 | 00:00:00 | |
| LZ4TU-5 | 2026-08-30 12:10:41 | 42.54819 | 23.55818 | 150° | 40km/h | 13647m | 3.3m/s | 0°C | 0% | 0hPa | 0V | 00:00:00 | 00:00:00 | 00:00:00 | |
| LZ4TU-5 | 2026-08-30 12:09:00 | 42.55546 | 23.54484 | 122° | 44km/h | 13113m | 6.4m/s | 0°C | 0% | 0hPa | 0V | 00:00:00 | 00:00:00 | 00:00:00 | |
| LZ4TU-5 | 2026-08-30 12:08:55 | 42.55573 | 23.54423 | 121° | 40km/h | 13087m | 4.4m/s | 0°C | 0% | 0hPa | 0V | 00:00:00 | 00:00:00 | 00:00:00 | |
| LZ4TU-5 | 2026-08-30 12:07:15 | 42.56143 | 23.53071 | 124° | 46km/h | 12556m | 3.0m/s | 0°C | 0% | 0hPa | 0V | 00:00:00 | 00:00:00 | 00:00:00 | |
| LZ4TU-5 | 2026-08-30 12:07:10 | 42.56169 | 23.53007 | 117° | 40km/h | 12535m | 5.4m/s | 0°C | 0% | 0hPa | 0V | 00:00:00 | 00:00:00 | 00:00:00 | |
| LZ4TU-5 | 2026-08-30 12:05:28 | 42.56886 | 23.51528 | 127° | 47km/h | 11977m | 5.6m/s | 0°C | 0% | 0hPa | 0V | 00:00:00 | 00:00:00 | 00:00:00 | |
| LZ4TU-5 | 2026-08-30 12:05:23 | 42.56921 | 23.51463 | 124° | 47km/h | 11948m | 8.3m/s | 0°C | 0% | 0hPa | 0V | 00:00:00 | 00:00:00 | 00:00:00 | |
| LZ4TU-5 | 2026-08-30 12:03:40 | 42.57687 | 23.50167 | 128° | 47km/h | 11350m | 6.2m/s | 0°C | 0% | 0hPa | 0V | 00:00:00 | 00:00:00 | 00:00:00 | |
| LZ4TU-5 | 2026-08-30 12:01:44 | 42.58539 | 23.48925 | 136° | 37km/h | 10721m | 6.7m/s | 0°C | 0% | 0hPa | 0V | 00:00:00 | 00:00:00 | 00:00:00 | |
| LZ4TU-5 | 2026-08-30 12:01:40 | 42.58571 | 23.48875 | 134° | 38km/h | 10694m | 5.8m/s | 0°C | 0% | 0hPa | 0V | 00:00:00 | 00:00:00 | 00:00:00 | |
| LZ4TU-5 | 2026-08-30 11:59:41 | 42.59318 | 23.47891 | 129° | 37km/h | 10053m | 5.8m/s | 0°C | 0% | 0hPa | 0V | 00:00:00 | 00:00:00 | 00:00:00 | |
| LZ4TU-5 | 2026-08-30 11:59:36 | 42.59348 | 23.47839 | 130° | 38km/h | 10025m | 6.1m/s | 0°C | 0% | 0hPa | 0V | 00:00:00 | 00:00:00 | 00:00:00 | |
| LZ4TU-5 | 2026-08-30 11:57:53 | 42.60011 | 23.46723 | 129° | 46km/h | 9483m | 4.3m/s | 0°C | 0% | 0hPa | 0V | 00:00:00 | 00:00:00 | 00:00:00 |